Time;durP1;ratioP1;P1;durP2;ratioP2;P2;SDS_P1;SDS_P2;PMS_P1;PMS_P2;Temp;Humidity;BMP_temperature;BMP_pressure;BME280_temperature;BME280_humidity;BME280_pressure;Samples;Min_cycle;Max_cycle;Signal;HPM_P1;HPM_P2
2023/10/22 00:00:37;;;;;;;;;;;7.60;84.60;;;;;;5108654;28;19911;-73
2023/10/22 00:03:02;;;;;;;;;;;7.60;84.60;;;;;;5108349;28;20034;-73
2023/10/22 00:05:28;;;;;;;;;;;7.50;85.00;;;;;;5109017;28;19915;-73
2023/10/22 00:07:54;;;;;;;;;;;7.50;84.60;;;;;;5090427;28;19912;-73
2023/10/22 00:10:19;;;;;;;;;;;7.50;84.60;;;;;;5108127;28;19969;-72
2023/10/22 00:12:45;;;;;;;;;;;7.50;84.60;;;;;;5108468;28;20378;-72
2023/10/22 00:15:10;;;;;;;;;;;7.40;84.50;;;;;;5090414;28;20413;-72
2023/10/22 00:17:36;;;;;;;;;;;7.40;84.50;;;;;;5108654;28;19989;-72
2023/10/22 00:20:02;;;;;;;;;;;7.40;84.50;;;;;;5108537;28;19907;-73
2023/10/22 00:22:28;;;;;;;;;;;7.40;84.60;;;;;;5108411;28;19943;-73
2023/10/22 00:24:54;;;;;;;;;;;7.40;84.50;;;;;;5090230;28;19954;-73
2023/10/22 00:27:19;;;;;;;;;;;7.40;84.60;;;;;;5108419;28;19912;-72
2023/10/22 00:29:45;;;;;;;;;;;7.40;84.60;;;;;;5108382;28;19912;-73
2023/10/22 00:32:11;;;;;;;;;;;7.30;84.60;;;;;;5108344;28;19916;-72
2023/10/22 00:34:36;;;;;;;;;;;7.30;84.60;;;;;;5090146;28;19968;-72
2023/10/22 00:37:02;;;;;;;;;;;7.30;84.60;;;;;;5108370;28;20346;-72
2023/10/22 00:39:28;;;;;;;;;;;7.30;84.60;;;;;;5090064;28;20317;-72
2023/10/22 00:41:53;;;;;;;;;;;7.30;84.60;;;;;;5108514;28;20307;-72
2023/10/22 00:44:19;;;;;;;;;;;7.30;84.60;;;;;;5090237;28;19934;-73
2023/10/22 00:46:45;;;;;;;;;;;7.30;84.50;;;;;;5108222;28;19912;-72
2023/10/22 00:49:12;;;;;;;;;;;7.30;84.50;;;;;;5108111;28;20002;-73
2023/10/22 00:51:37;;;;;;;;;;;7.30;84.50;;;;;;5107969;28;19912;-72
2023/10/22 00:54:04;;;;;;;;;;;7.20;84.50;;;;;;5089660;28;19920;-72
2023/10/22 00:56:29;;;;;;;;;;;7.30;84.50;;;;;;5108123;28;19916;-72
2023/10/22 00:58:56;;;;;;;;;;;7.20;84.50;;;;;;5107982;28;19916;-73
2023/10/22 01:01:22;;;;;;;;;;;7.20;84.50;;;;;;5108339;28;20268;-72
2023/10/22 01:03:47;;;;;;;;;;;7.20;84.50;;;;;;5107856;28;19928;-72
2023/10/22 01:06:13;;;;;;;;;;;7.20;84.50;;;;;;5089663;28;19981;-71
2023/10/22 01:08:39;;;;;;;;;;;7.20;84.50;;;;;;5108052;28;19923;-72
2023/10/22 01:11:08;;;;;;;;;;;7.10;84.50;;;;;;5089998;28;20429;-72
2023/10/22 01:13:35;;;;;;;;;;;7.10;84.50;;;;;;5107861;28;19969;-72
2023/10/22 01:16:01;;;;;;;;;;;7.10;84.50;;;;;;5108053;28;19916;-72
2023/10/22 01:18:26;;;;;;;;;;;7.10;84.50;;;;;;5107898;28;19920;-72
2023/10/22 01:20:52;;;;;;;;;;;7.10;84.50;;;;;;5089784;28;19922;-72
2023/10/22 01:23:18;;;;;;;;;;;7.10;84.50;;;;;;5109647;28;19918;-72
2023/10/22 01:25:43;;;;;;;;;;;7.00;84.50;;;;;;5093580;28;19934;-72
2023/10/22 01:28:09;;;;;;;;;;;7.00;84.50;;;;;;5093418;28;20301;-72
2023/10/22 01:30:35;;;;;;;;;;;7.00;84.50;;;;;;5111398;28;19915;-73
2023/10/22 01:33:01;;;;;;;;;;;7.00;84.50;;;;;;5111352;28;20373;-72
2023/10/22 01:35:26;;;;;;;;;;;7.00;84.50;;;;;;5111451;28;19994;-71
2023/10/22 01:37:52;;;;;;;;;;;7.00;84.50;;;;;;5111928;28;20023;-72
2023/10/22 01:40:18;;;;;;;;;;;7.00;84.50;;;;;;5076230;28;19981;-72
2023/10/22 01:42:45;;;;;;;;;;;7.00;84.50;;;;;;5111226;28;20054;-72
2023/10/22 01:45:11;;;;;;;;;;;7.00;84.50;;;;;;5093088;28;19999;-72
2023/10/22 01:47:36;;;;;;;;;;;7.00;84.50;;;;;;5111185;28;20360;-72
2023/10/22 01:50:04;;;;;;;;;;;7.00;84.50;;;;;;5110976;28;19969;-72
2023/10/22 01:52:30;;;;;;;;;;;7.00;84.50;;;;;;5092354;28;19973;-72
2023/10/22 01:54:56;;;;;;;;;;;7.00;84.50;;;;;;5110684;28;19920;-71
2023/10/22 01:57:21;;;;;;;;;;;7.00;84.50;;;;;;5092743;28;19911;-72
2023/10/22 01:59:47;;;;;;;;;;;7.00;84.60;;;;;;5110583;28;20278;-72
2023/10/22 02:02:12;;;;;;;;;;;7.00;84.50;;;;;;5110392;28;19951;-72
2023/10/22 02:04:38;;;;;;;;;;;7.00;84.60;;;;;;5110606;28;19969;-72
2023/10/22 02:07:04;;;;;;;;;;;7.00;84.60;;;;;;5110750;28;19955;-72
2023/10/22 02:09:30;;;;;;;;;;;7.00;84.60;;;;;;5110519;28;19912;-71
2023/10/22 02:11:56;;;;;;;;;;;7.00;84.60;;;;;;5110470;28;20399;-72
2023/10/22 02:14:22;;;;;;;;;;;7.00;84.60;;;;;;5092152;28;19920;-72
2023/10/22 02:16:47;;;;;;;;;;;7.00;84.60;;;;;;5110621;28;20006;-72
2023/10/22 02:19:13;;;;;;;;;;;7.00;84.70;;;;;;5110468;28;20425;-72
2023/10/22 02:21:38;;;;;;;;;;;7.00;84.70;;;;;;5110514;28;20439;-72
2023/10/22 02:24:04;;;;;;;;;;;7.00;84.70;;;;;;5092255;28;19953;-72
2023/10/22 02:26:29;;;;;;;;;;;7.00;84.70;;;;;;5092362;28;19969;-72
2023/10/22 02:28:55;;;;;;;;;;;6.90;84.60;;;;;;5092251;28;19912;-72
2023/10/22 02:31:21;;;;;;;;;;;6.90;84.60;;;;;;5092153;28;19970;-72
2023/10/22 02:33:46;;;;;;;;;;;7.00;84.70;;;;;;5110069;28;20055;-72
2023/10/22 02:36:12;;;;;;;;;;;6.90;84.60;;;;;;5092259;28;19916;-73
2023/10/22 02:38:38;;;;;;;;;;;6.90;84.60;;;;;;5110229;28;19922;-72
2023/10/22 02:41:04;;;;;;;;;;;6.90;84.60;;;;;;5110116;28;20368;-72
2023/10/22 02:43:30;;;;;;;;;;;6.90;84.60;;;;;;5109958;28;19914;-71
2023/10/22 02:45:56;;;;;;;;;;;6.90;84.60;;;;;;5110220;28;19908;-72
2023/10/22 02:48:23;;;;;;;;;;;6.90;84.60;;;;;;5110013;28;20018;-72
2023/10/22 02:50:49;;;;;;;;;;;6.90;84.60;;;;;;5109801;28;19922;-72
2023/10/22 02:53:14;;;;;;;;;;;6.90;84.60;;;;;;5109779;28;19916;-72
2023/10/22 02:55:40;;;;;;;;;;;6.80;84.50;;;;;;5109837;28;19912;-72
2023/10/22 02:58:06;;;;;;;;;;;6.80;84.50;;;;;;5109727;28;19907;-71
2023/10/22 03:00:35;;;;;;;;;;;6.80;84.50;;;;;;5091612;28;19938;-72
2023/10/22 03:03:04;;;;;;;;;;;6.80;84.50;;;;;;5091186;28;20256;-72
2023/10/22 03:05:32;;;;;;;;;;;6.80;84.50;;;;;;5109724;28;19911;-72
2023/10/22 03:07:59;;;;;;;;;;;6.80;84.50;;;;;;5109638;28;20003;-72
2023/10/22 03:10:24;;;;;;;;;;;6.80;84.50;;;;;;5109686;28;19923;-72
2023/10/22 03:12:50;;;;;;;;;;;6.80;85.00;;;;;;5109375;28;19912;-72
2023/10/22 03:15:15;;;;;;;;;;;6.80;84.60;;;;;;5109383;28;19916;-71
2023/10/22 03:17:41;;;;;;;;;;;6.80;84.60;;;;;;5109833;28;19911;-72
2023/10/22 03:20:07;;;;;;;;;;;6.80;85.00;;;;;;5109405;28;19908;-72
2023/10/22 03:22:32;;;;;;;;;;;6.70;84.50;;;;;;5090905;28;19976;-72
2023/10/22 03:24:58;;;;;;;;;;;6.80;84.50;;;;;;5109296;28;19923;-72
2023/10/22 03:27:23;;;;;;;;;;;6.80;84.50;;;;;;5109337;28;19994;-72
2023/10/22 03:29:49;;;;;;;;;;;6.70;84.50;;;;;;5109238;28;20473;-72
2023/10/22 03:32:14;;;;;;;;;;;6.80;84.50;;;;;;5109084;28;19965;-72
2023/10/22 03:34:40;;;;;;;;;;;6.70;84.40;;;;;;5109035;28;19973;-72
2023/10/22 03:37:08;;;;;;;;;;;6.70;84.50;;;;;;5090960;28;20398;-72
2023/10/22 03:39:34;;;;;;;;;;;6.70;84.40;;;;;;5109154;28;19912;-72
2023/10/22 03:42:00;;;;;;;;;;;6.70;84.50;;;;;;5090577;28;19915;-72
2023/10/22 03:44:26;;;;;;;;;;;6.70;84.40;;;;;;5108929;28;19918;-72
2023/10/22 03:46:51;;;;;;;;;;;6.70;84.50;;;;;;5108414;28;19912;-72
2023/10/22 03:49:17;;;;;;;;;;;6.70;84.50;;;;;;5108926;28;19925;-72
2023/10/22 03:51:43;;;;;;;;;;;6.70;84.50;;;;;;5090668;28;19915;-72
2023/10/22 03:54:08;;;;;;;;;;;6.70;84.50;;;;;;5108712;28;19923;-71
2023/10/22 03:56:36;;;;;;;;;;;6.70;84.50;;;;;;5108885;28;20317;-72
2023/10/22 03:59:02;;;;;;;;;;;6.70;84.50;;;;;;5090569;28;19915;-72
2023/10/22 04:01:28;;;;;;;;;;;6.70;84.50;;;;;;5108733;28;20364;-72
2023/10/22 04:03:53;;;;;;;;;;;6.60;84.40;;;;;;5108479;28;19972;-72
2023/10/22 04:06:21;;;;;;;;;;;6.60;84.40;;;;;;5107887;28;21412;-72
2023/10/22 04:08:46;;;;;;;;;;;6.60;84.40;;;;;;5108508;28;19912;-72
2023/10/22 04:11:12;;;;;;;;;;;6.60;84.40;;;;;;5108639;28;20347;-72
2023/10/22 04:13:37;;;;;;;;;;;6.60;84.40;;;;;;5108325;28;19911;-72
2023/10/22 04:16:03;;;;;;;;;;;6.60;84.40;;;;;;5108361;28;20365;-72
2023/10/22 04:18:29;;;;;;;;;;;6.50;84.30;;;;;;5108550;28;20393;-71
2023/10/22 04:20:54;;;;;;;;;;;6.50;84.30;;;;;;5108647;28;19916;-72
2023/10/22 04:23:20;;;;;;;;;;;6.50;84.30;;;;;;5108538;28;19922;-72
2023/10/22 04:25:45;;;;;;;;;;;6.50;84.30;;;;;;5108351;28;19919;-72
2023/10/22 04:28:12;;;;;;;;;;;6.50;84.30;;;;;;5090150;28;19915;-72
2023/10/22 04:30:41;;;;;;;;;;;6.50;84.30;;;;;;5108373;28;19982;-72
2023/10/22 04:33:07;;;;;;;;;;;6.50;84.30;;;;;;5090237;28;19914;-72
2023/10/22 04:35:33;;;;;;;;;;;6.50;84.40;;;;;;5108265;28;19912;-72
2023/10/22 04:37:59;;;;;;;;;;;6.40;84.40;;;;;;5108319;28;19919;-72
2023/10/22 04:40:27;;;;;;;;;;;6.40;84.40;;;;;;5089944;28;19934;-72
2023/10/22 04:42:59;;;;;;;;;;;6.40;84.40;;;;;;5108635;28;19911;-72
2023/10/22 04:45:24;;;;;;;;;;;6.40;84.40;;;;;;5108378;28;20339;-72
2023/10/22 04:47:50;;;;;;;;;;;6.40;84.40;;;;;;5108183;28;19912;-72
2023/10/22 04:50:16;;;;;;;;;;;6.40;84.40;;;;;;5108074;28;20027;-72
2023/10/22 04:52:41;;;;;;;;;;;6.40;84.40;;;;;;5108005;28;20006;-72
2023/10/22 04:55:08;;;;;;;;;;;6.40;84.40;;;;;;5108088;28;19916;-72
2023/10/22 04:57:34;;;;;;;;;;;6.40;84.40;;;;;;5110678;28;19912;-72
2023/10/22 05:00:00;;;;;;;;;;;6.40;84.40;;;;;;5112283;28;19954;-72
2023/10/22 05:02:26;;;;;;;;;;;6.40;84.30;;;;;;5111876;28;20298;-72
2023/10/22 05:04:52;;;;;;;;;;;6.40;84.30;;;;;;5112154;28;19923;-72
2023/10/22 05:07:17;;;;;;;;;;;6.40;84.30;;;;;;5093790;28;19986;-72
2023/10/22 05:09:44;;;;;;;;;;;6.40;84.30;;;;;;5111861;28;20027;-72
2023/10/22 05:12:09;;;;;;;;;;;6.40;84.30;;;;;;5112290;28;19907;-72
2023/10/22 05:14:35;;;;;;;;;;;6.40;84.40;;;;;;5111617;28;20370;-72
2023/10/22 05:17:00;;;;;;;;;;;6.40;84.40;;;;;;5111584;28;19922;-72
2023/10/22 05:19:26;;;;;;;;;;;6.30;84.40;;;;;;5111898;28;19912;-71
2023/10/22 05:21:52;;;;;;;;;;;6.30;84.40;;;;;;5111596;28;19945;-72
2023/10/22 05:24:17;;;;;;;;;;;6.30;84.40;;;;;;5093514;28;19919;-72
2023/10/22 05:26:43;;;;;;;;;;;6.30;84.50;;;;;;5111735;28;20292;-72
2023/10/22 05:29:09;;;;;;;;;;;6.30;84.50;;;;;;5111413;28;19915;-72
2023/10/22 05:31:34;;;;;;;;;;;6.20;84.50;;;;;;5111352;28;20364;-72
2023/10/22 05:34:00;;;;;;;;;;;6.20;84.50;;;;;;5111466;28;19915;-72
2023/10/22 05:36:26;;;;;;;;;;;6.20;84.60;;;;;;5111339;28;19912;-72
2023/10/22 05:38:51;;;;;;;;;;;6.10;84.60;;;;;;5076004;28;19915;-72
2023/10/22 05:41:23;;;;;;;;;;;6.10;84.60;;;;;;5111376;28;19957;-72
2023/10/22 05:43:55;;;;;;;;;;;6.10;84.70;;;;;;5111271;28;19916;-72
2023/10/22 05:46:22;;;;;;;;;;;6.10;84.60;;;;;;5111304;28;20004;-71
2023/10/22 05:48:47;;;;;;;;;;;6.10;84.60;;;;;;5076082;28;20261;-72
2023/10/22 05:51:13;;;;;;;;;;;6.00;84.50;;;;;;5111028;28;19951;-72
2023/10/22 05:53:38;;;;;;;;;;;6.00;84.50;;;;;;5110848;28;19960;-72
2023/10/22 05:56:04;;;;;;;;;;;6.00;84.50;;;;;;5111059;28;20018;-72
2023/10/22 05:58:29;;;;;;;;;;;6.00;84.50;;;;;;5110887;28;19938;-72
2023/10/22 06:00:58;;;;;;;;;;;6.00;84.50;;;;;;5092612;28;19934;-72
2023/10/22 06:03:24;;;;;;;;;;;5.90;84.50;;;;;;5110710;28;20272;-71
2023/10/22 06:05:50;;;;;;;;;;;5.90;84.50;;;;;;5092445;28;19908;-72
2023/10/22 06:08:15;;;;;;;;;;;5.90;84.40;;;;;;5110224;28;19915;-72
2023/10/22 06:10:44;;;;;;;;;;;5.90;84.40;;;;;;5110917;28;19962;-72
2023/10/22 06:13:11;;;;;;;;;;;5.90;84.40;;;;;;5092203;28;19998;-72
2023/10/22 06:15:38;;;;;;;;;;;5.90;84.50;;;;;;5092341;28;20002;-72
2023/10/22 06:18:04;;;;;;;;;;;5.80;84.50;;;;;;5092573;28;19919;-72
2023/10/22 06:20:30;;;;;;;;;;;5.80;84.50;;;;;;5110542;28;19907;-72
2023/10/22 06:22:56;;;;;;;;;;;5.90;84.50;;;;;;5110435;28;20010;-71
2023/10/22 06:25:22;;;;;;;;;;;5.90;84.50;;;;;;5092366;28;19939;-72
2023/10/22 06:27:47;;;;;;;;;;;5.90;84.50;;;;;;5110482;28;20252;-72
2023/10/22 06:30:13;;;;;;;;;;;5.90;84.40;;;;;;5092446;28;19916;-71
2023/10/22 06:32:38;;;;;;;;;;;5.90;84.40;;;;;;5110484;28;19923;-72
2023/10/22 06:35:05;;;;;;;;;;;5.80;84.40;;;;;;5110218;28;20049;-72
2023/10/22 06:37:31;;;;;;;;;;;5.80;84.30;;;;;;5092227;28;20053;-72
2023/10/22 06:39:59;;;;;;;;;;;5.80;84.30;;;;;;5110214;28;19998;-72
2023/10/22 06:42:26;;;;;;;;;;;5.80;84.40;;;;;;5109983;28;19945;-71
2023/10/22 06:44:52;;;;;;;;;;;5.70;84.40;;;;;;5091693;28;20419;-72
2023/10/22 06:47:17;;;;;;;;;;;5.70;84.90;;;;;;5110070;28;19995;-71
2023/10/22 06:49:43;;;;;;;;;;;5.70;84.40;;;;;;5109809;28;19912;-71
2023/10/22 06:52:08;;;;;;;;;;;5.70;84.50;;;;;;5109653;28;20000;-72
2023/10/22 06:54:34;;;;;;;;;;;5.60;84.50;;;;;;5109697;28;19919;-70
2023/10/22 06:57:00;;;;;;;;;;;5.60;84.60;;;;;;5109714;28;20006;-72
2023/10/22 06:59:25;;;;;;;;;;;5.60;84.60;;;;;;5091207;28;19908;-72
2023/10/22 07:01:51;;;;;;;;;;;5.60;84.60;;;;;;5109389;28;19934;-72
2023/10/22 07:04:17;;;;;;;;;;;5.60;84.50;;;;;;5091108;28;19973;-72
2023/10/22 07:06:44;;;;;;;;;;;5.60;84.50;;;;;;5109246;28;20011;-73
2023/10/22 07:09:10;;;;;;;;;;;5.60;84.40;;;;;;5109460;28;19912;-73
2023/10/22 07:11:37;;;;;;;;;;;5.60;84.40;;;;;;5109340;28;19911;-72
2023/10/22 07:14:02;;;;;;;;;;;5.60;84.30;;;;;;5109570;28;20367;-72
2023/10/22 07:16:28;;;;;;;;;;;5.60;84.30;;;;;;5091327;28;19916;-72
2023/10/22 07:18:53;;;;;;;;;;;5.60;84.50;;;;;;5091207;28;19958;-72
2023/10/22 07:21:19;;;;;;;;;;;5.60;84.40;;;;;;5108177;28;20387;-69
2023/10/22 07:23:45;;;;;;;;;;;5.60;84.40;;;;;;5109162;28;20292;-72
2023/10/22 07:26:11;;;;;;;;;;;5.70;84.50;;;;;;5109303;28;19914;-72
2023/10/22 07:28:41;;;;;;;;;;;5.70;84.60;;;;;;5109054;28;19916;-76
2023/10/22 07:31:07;;;;;;;;;;;5.80;84.70;;;;;;5109230;28;20279;-75
2023/10/22 07:33:32;;;;;;;;;;;5.80;84.80;;;;;;5108742;28;19916;-75
2023/10/22 07:36:03;;;;;;;;;;;5.90;85.00;;;;;;5109044;28;19915;-75
2023/10/22 07:38:31;;;;;;;;;;;6.10;85.30;;;;;;5108929;28;19915;-75
2023/10/22 07:40:57;;;;;;;;;;;6.30;85.60;;;;;;5108723;28;19981;-75
2023/10/22 07:43:25;;;;;;;;;;;6.50;85.50;;;;;;5108636;28;19974;-75
2023/10/22 07:45:51;;;;;;;;;;;6.70;85.30;;;;;;5108961;28;20319;-76
2023/10/22 07:48:16;;;;;;;;;;;6.80;84.90;;;;;;5108335;28;19931;-75
2023/10/22 07:50:42;;;;;;;;;;;6.80;84.70;;;;;;5108762;28;20360;-75
2023/10/22 07:53:07;;;;;;;;;;;6.70;84.50;;;;;;5108063;28;20337;-75
2023/10/22 07:55:37;;;;;;;;;;;6.70;84.60;;;;;;5108223;28;19912;-75
2023/10/22 07:58:03;;;;;;;;;;;6.70;84.80;;;;;;5089933;28;19965;-75
2023/10/22 08:00:28;;;;;;;;;;;6.70;84.90;;;;;;5108278;28;19923;-75
2023/10/22 08:02:54;;;;;;;;;;;6.80;85.40;;;;;;5086273;28;19991;-75
2023/10/22 08:05:19;;;;;;;;;;;6.80;84.80;;;;;;5086630;28;20334;-75
2023/10/22 08:07:45;;;;;;;;;;;6.80;84.80;;;;;;5087903;28;20413;-75
2023/10/22 08:10:11;;;;;;;;;;;6.80;84.90;;;;;;5086556;28;19916;-75
2023/10/22 08:12:36;;;;;;;;;;;6.90;84.90;;;;;;5087561;28;20360;-76
2023/10/22 08:15:02;;;;;;;;;;;6.90;84.80;;;;;;5087490;28;19923;-75
2023/10/22 08:17:27;;;;;;;;;;;7.00;84.80;;;;;;5087756;28;19913;-75
2023/10/22 08:19:53;;;;;;;;;;;7.10;84.80;;;;;;5087637;28;19912;-75
2023/10/22 08:22:19;;;;;;;;;;;7.10;84.80;;;;;;5087611;28;20023;-76
2023/10/22 08:24:48;;;;;;;;;;;7.20;84.90;;;;;;5087751;28;19915;-76
2023/10/22 08:27:14;;;;;;;;;;;7.30;85.00;;;;;;5087947;28;20052;-75
2023/10/22 08:29:40;;;;;;;;;;;7.40;85.40;;;;;;5087546;28;20325;-76
2023/10/22 08:32:05;;;;;;;;;;;7.90;86.80;;;;;;5089670;28;19912;-76
2023/10/22 08:34:32;;;;;;;;;;;8.90;88.90;;;;;;5091861;28;19916;-76
2023/10/22 08:36:57;;;;;;;;;;;10.30;89.80;;;;;;5091621;28;19977;-75
2023/10/22 08:39:26;;;;;;;;;;;11.60;89.50;;;;;;5090330;28;19911;-77
2023/10/22 08:42:01;;;;;;;;;;;12.50;88.30;;;;;;5092981;28;20007;-68
2023/10/22 08:44:28;;;;;;;;;;;13.20;88.30;;;;;;5091266;28;19914;-76
2023/10/22 08:46:54;;;;;;;;;;;14.00;88.60;;;;;;5091434;28;19954;-76
2023/10/22 08:49:21;;;;;;;;;;;14.90;88.90;;;;;;5091100;28;20327;-76
2023/10/22 08:51:46;;;;;;;;;;;15.70;88.80;;;;;;5091544;28;19916;-76
2023/10/22 08:54:12;;;;;;;;;;;16.10;87.40;;;;;;5091461;28;19916;-76
2023/10/22 08:56:38;;;;;;;;;;;16.40;87.60;;;;;;5091339;28;19916;-76
2023/10/22 08:59:05;;;;;;;;;;;16.30;86.50;;;;;;5091493;28;19958;-76
2023/10/22 09:01:31;;;;;;;;;;;15.70;85.70;;;;;;5089328;28;20391;-76
2023/10/22 09:03:56;;;;;;;;;;;15.40;87.20;;;;;;5103697;28;20034;-76
2023/10/22 09:06:22;;;;;;;;;;;15.90;89.40;;;;;;5093008;28;20375;-76
2023/10/22 09:08:48;;;;;;;;;;;16.70;90.00;;;;;;5111332;28;19916;-77
2023/10/22 09:11:17;;;;;;;;;;;17.70;90.10;;;;;;5111309;28;20363;-77
2023/10/22 09:13:43;;;;;;;;;;;18.60;89.90;;;;;;5111023;28;20348;-77
2023/10/22 09:16:08;;;;;;;;;;;19.40;89.60;;;;;;5111170;28;19920;-76
2023/10/22 09:18:44;;;;;;;;;;;20.20;89.60;;;;;;5111057;28;19912;-76
2023/10/22 09:21:10;;;;;;;;;;;20.90;89.40;;;;;;5111240;28;19912;-77
2023/10/22 09:23:36;;;;;;;;;;;21.50;89.20;;;;;;5110804;28;19914;-77
2023/10/22 09:26:02;;;;;;;;;;;22.00;89.10;;;;;;5110641;28;19911;-76
2023/10/22 09:28:28;;;;;;;;;;;22.40;89.20;;;;;;5110540;28;20065;-77
2023/10/22 09:31:00;;;;;;;;;;;22.90;89.30;;;;;;5110696;28;20439;-77
2023/10/22 09:33:36;;;;;;;;;;;23.30;89.40;;;;;;5092131;28;19911;-77
2023/10/22 09:36:03;;;;;;;;;;;23.60;89.40;;;;;;5110620;28;19915;-77
2023/10/22 09:38:45;;;;;;;;;;;24.00;89.40;;;;;;5110486;28;19923;-77
2023/10/22 09:41:13;;;;;;;;;;;24.30;89.40;;;;;;5110544;28;19952;-77
2023/10/22 09:43:40;;;;;;;;;;;24.50;89.40;;;;;;5108784;28;19950;-77
2023/10/22 09:46:07;;;;;;;;;;;24.70;89.50;;;;;;5092153;28;20645;-77
2023/10/22 09:48:35;;;;;;;;;;;24.90;89.50;;;;;;5110331;28;19960;-77
2023/10/22 09:51:05;;;;;;;;;;;24.90;89.30;;;;;;5109991;28;19908;-78
2023/10/22 09:53:36;;;;;;;;;;;25.00;89.60;;;;;;5109718;28;20017;-76
2023/10/22 09:56:06;;;;;;;;;;;25.20;89.90;;;;;;5110012;28;19955;-77
2023/10/22 09:58:34;;;;;;;;;;;25.10;89.50;;;;;;5110136;28;19914;-76
2023/10/22 10:00:59;;;;;;;;;;;24.80;89.30;;;;;;5110290;28;19965;-76
2023/10/22 10:03:26;;;;;;;;;;;24.50;89.60;;;;;;5109535;28;19928;-76
2023/10/22 10:05:53;;;;;;;;;;;24.30;90.00;;;;;;5091459;28;19912;-76
2023/10/22 10:08:19;;;;;;;;;;;24.30;90.20;;;;;;5109689;28;19973;-76
2023/10/22 10:10:45;;;;;;;;;;;24.50;90.30;;;;;;5109263;28;20373;-77
2023/10/22 10:13:11;;;;;;;;;;;24.50;90.00;;;;;;5108964;28;20010;-76
2023/10/22 10:15:38;;;;;;;;;;;24.30;89.90;;;;;;5109094;28;20010;-77
2023/10/22 10:18:06;;;;;;;;;;;24.20;90.10;;;;;;5109561;28;19918;-76
2023/10/22 10:20:32;;;;;;;;;;;24.30;90.20;;;;;;5109369;28;19962;-77
2023/10/22 10:23:11;;;;;;;;;;;24.50;90.20;;;;;;5109426;28;20442;-76
2023/10/22 10:25:39;;;;;;;;;;;24.50;90.00;;;;;;5109382;28;19912;-77
2023/10/22 10:28:05;;;;;;;;;;;24.70;90.10;;;;;;5109177;28;20011;-76
2023/10/22 10:30:31;;;;;;;;;;;24.80;90.20;;;;;;5090655;28;19908;-76
2023/10/22 10:32:57;;;;;;;;;;;25.00;90.20;;;;;;5109351;28;19907;-76
2023/10/22 10:35:24;;;;;;;;;;;25.20;90.30;;;;;;5109354;28;19923;-76
2023/10/22 10:38:08;;;;;;;;;;;25.40;90.20;;;;;;5108968;28;19908;-76
2023/10/22 10:40:39;;;;;;;;;;;25.50;90.10;;;;;;5108828;28;19952;-76
2023/10/22 10:43:05;;;;;;;;;;;25.60;90.20;;;;;;5108980;28;19915;-77
2023/10/22 10:45:31;;;;;;;;;;;25.90;90.30;;;;;;5108902;28;19908;-76
2023/10/22 10:47:56;;;;;;;;;;;26.00;90.30;;;;;;5090779;28;20256;-76
2023/10/22 10:50:22;;;;;;;;;;;26.20;90.40;;;;;;5108383;28;19964;-76
2023/10/22 10:52:47;;;;;;;;;;;26.40;90.50;;;;;;5108304;28;19909;-76
2023/10/22 10:55:19;;;;;;;;;;;26.50;90.50;;;;;;5090091;28;19912;-76
2023/10/22 10:57:49;;;;;;;;;;;26.70;90.50;;;;;;5110616;28;19919;-76
2023/10/22 11:00:30;;;;;;;;;;;26.70;90.60;;;;;;5108163;28;19947;-76
2023/10/22 11:02:58;;;;;;;;;;;26.80;90.80;;;;;;5108326;28;19958;-76
2023/10/22 11:05:42;;;;;;;;;;;27.00;90.80;;;;;;5107616;28;20212;-76
2023/10/22 11:08:12;;;;;;;;;;;27.00;91.00;;;;;;5108348;28;20008;-76
2023/10/22 11:10:37;;;;;;;;;;;27.10;91.00;;;;;;5089703;28;20064;-75
2023/10/22 11:13:04;;;;;;;;;;;27.00;90.60;;;;;;5108146;28;20407;-76
2023/10/22 11:15:36;;;;;;;;;;;26.60;90.40;;;;;;5108097;28;19918;-76
2023/10/22 11:18:03;;;;;;;;;;;26.20;90.20;;;;;;5107878;28;19908;-77
2023/10/22 11:20:29;;;;;;;;;;;25.90;90.40;;;;;;5108026;28;19982;-76
2023/10/22 11:22:55;;;;;;;;;;;26.00;90.70;;;;;;5108067;28;19912;-76
2023/10/22 11:25:21;;;;;;;;;;;26.10;90.70;;;;;;5108151;28;19916;-76
2023/10/22 11:27:47;;;;;;;;;;;26.10;90.80;;;;;;5107705;28;20011;-76
2023/10/22 11:30:32;;;;;;;;;;;26.00;90.70;;;;;;5108113;28;19916;-76
2023/10/22 11:32:57;;;;;;;;;;;25.70;90.40;;;;;;5108134;28;19911;-76
2023/10/22 11:35:28;;;;;;;;;;;25.40;90.50;;;;;;5089749;28;19967;-76
2023/10/22 11:37:54;;;;;;;;;;;25.50;90.90;;;;;;5108023;28;19908;-76
2023/10/22 11:40:25;;;;;;;;;;;25.70;91.10;;;;;;5107685;28;20321;-76
2023/10/22 11:42:52;;;;;;;;;;;26.00;91.00;;;;;;5089076;28;20359;-77
2023/10/22 11:45:17;;;;;;;;;;;26.10;90.80;;;;;;5107656;28;19932;-75
2023/10/22 11:47:43;;;;;;;;;;;26.20;90.80;;;;;;5107290;28;19998;-76
2023/10/22 11:50:14;;;;;;;;;;;26.40;90.80;;;;;;5107510;28;19912;-76
2023/10/22 11:52:46;;;;;;;;;;;26.40;90.60;;;;;;5107520;28;20002;-76
2023/10/22 11:55:11;;;;;;;;;;;26.10;90.30;;;;;;5107175;28;19911;-76
2023/10/22 11:57:37;;;;;;;;;;;26.00;90.40;;;;;;5107341;28;20320;-76
2023/10/22 12:00:04;;;;;;;;;;;25.80;90.40;;;;;;5107632;28;20007;-77
2023/10/22 12:02:30;;;;;;;;;;;25.80;90.60;;;;;;5107044;28;19912;-77
2023/10/22 12:04:56;;;;;;;;;;;25.80;90.80;;;;;;5107483;28;19969;-77
2023/10/22 12:07:22;;;;;;;;;;;25.80;90.90;;;;;;5106866;28;19908;-78
2023/10/22 12:09:47;;;;;;;;;;;25.80;90.90;;;;;;5089364;28;19987;-75
2023/10/22 12:12:13;;;;;;;;;;;25.60;91.00;;;;;;5107590;28;20292;-77
2023/10/22 12:14:39;;;;;;;;;;;25.60;91.00;;;;;;5106841;28;19974;-77
2023/10/22 12:17:08;;;;;;;;;;;25.50;90.80;;;;;;5088729;28;19916;-78
2023/10/22 12:19:34;;;;;;;;;;;25.20;90.60;;;;;;5106747;28;20060;-78
2023/10/22 12:21:59;;;;;;;;;;;25.00;90.60;;;;;;5106613;28;20426;-78
2023/10/22 12:24:25;;;;;;;;;;;24.70;90.30;;;;;;5107066;28;19957;-77
2023/10/22 12:26:51;;;;;;;;;;;24.20;89.90;;;;;;5088723;28;19907;-78
2023/10/22 12:29:16;;;;;;;;;;;23.80;90.40;;;;;;5106678;28;19912;-78
2023/10/22 12:31:42;;;;;;;;;;;23.90;90.90;;;;;;5106484;28;20036;-78
2023/10/22 12:34:15;;;;;;;;;;;24.00;90.90;;;;;;5090074;28;19926;-74
2023/10/22 12:36:40;;;;;;;;;;;24.10;90.90;;;;;;5087803;28;19929;-73
2023/10/22 12:39:07;;;;;;;;;;;23.90;90.60;;;;;;5106654;28;20015;-73
2023/10/22 12:41:33;;;;;;;;;;;23.80;90.50;;;;;;5088252;28;20024;-74
2023/10/22 12:43:59;;;;;;;;;;;23.80;90.50;;;;;;5088350;28;19919;-73
2023/10/22 12:46:24;;;;;;;;;;;23.80;90.60;;;;;;5088259;28;19915;-74
2023/10/22 12:48:51;;;;;;;;;;;23.70;90.40;;;;;;5106585;28;19929;-67
2023/10/22 12:51:17;;;;;;;;;;;23.40;90.30;;;;;;5088186;28;19916;-73
2023/10/22 12:53:43;;;;;;;;;;;23.20;90.30;;;;;;5106362;28;20335;-72
2023/10/22 12:56:09;;;;;;;;;;;23.10;90.30;;;;;;5106311;28;19947;-72
2023/10/22 12:58:35;;;;;;;;;;;23.00;90.40;;;;;;5106262;28;19966;-72
2023/10/22 13:01:04;;;;;;;;;;;22.90;90.50;;;;;;5088016;28;20019;-75
2023/10/22 13:03:29;;;;;;;;;;;22.90;90.70;;;;;;5087845;28;20463;-76
2023/10/22 13:05:55;;;;;;;;;;;23.00;90.70;;;;;;5106703;28;19998;-74
2023/10/22 13:08:21;;;;;;;;;;;23.00;90.60;;;;;;5088879;28;19912;-76
2023/10/22 13:10:48;;;;;;;;;;;23.10;90.70;;;;;;5088385;28;19934;-76
2023/10/22 13:13:14;;;;;;;;;;;23.10;90.70;;;;;;5106700;28;19912;-75
2023/10/22 13:15:39;;;;;;;;;;;23.20;90.80;;;;;;5106367;28;19912;-76
2023/10/22 13:18:05;;;;;;;;;;;23.20;90.90;;;;;;5108302;28;19916;-76
2023/10/22 13:20:30;;;;;;;;;;;23.20;90.70;;;;;;5110951;28;19912;-76
2023/10/22 13:22:56;;;;;;;;;;;23.10;90.60;;;;;;5092086;28;19965;-76
2023/10/22 13:25:22;;;;;;;;;;;22.90;90.40;;;;;;5091997;28;19916;-76
2023/10/22 13:27:47;;;;;;;;;;;22.80;90.60;;;;;;5110551;28;19919;-76
2023/10/22 13:30:13;;;;;;;;;;;22.70;90.80;;;;;;5110438;28;20303;-76
2023/10/22 13:32:38;;;;;;;;;;;22.60;90.60;;;;;;5110459;28;19935;-75
2023/10/22 13:35:05;;;;;;;;;;;22.50;90.60;;;;;;5110056;28;19912;-75
2023/10/22 13:37:30;;;;;;;;;;;22.40;90.60;;;;;;5109919;28;20053;-76
2023/10/22 13:39:56;;;;;;;;;;;22.10;90.20;;;;;;5110377;28;20002;-76
2023/10/22 13:42:21;;;;;;;;;;;21.70;90.00;;;;;;5091757;28;19916;-75
2023/10/22 13:44:47;;;;;;;;;;;21.40;90.30;;;;;;5109670;28;20371;-75
2023/10/22 13:47:15;;;;;;;;;;;21.20;90.50;;;;;;5109679;28;19947;-75
2023/10/22 13:49:41;;;;;;;;;;;21.10;90.50;;;;;;5109544;28;20279;-76
2023/10/22 13:52:07;;;;;;;;;;;20.80;90.30;;;;;;5109644;28;20316;-76
2023/10/22 13:54:32;;;;;;;;;;;20.50;90.10;;;;;;5109354;28;19920;-75
2023/10/22 13:56:58;;;;;;;;;;;20.10;89.60;;;;;;5109532;28;19916;-76
2023/10/22 13:59:24;;;;;;;;;;;19.80;89.30;;;;;;5109250;28;19957;-76
2023/10/22 14:01:49;;;;;;;;;;;19.40;89.30;;;;;;5109728;28;20007;-76
2023/10/22 14:04:15;;;;;;;;;;;19.10;89.10;;;;;;5109308;28;19930;-76
2023/10/22 14:06:40;;;;;;;;;;;19.00;89.20;;;;;;5109557;28;20412;-75
2023/10/22 14:09:06;;;;;;;;;;;18.80;88.70;;;;;;5090917;28;20278;-76
2023/10/22 14:11:31;;;;;;;;;;;18.60;88.60;;;;;;5109177;28;20213;-76
2023/10/22 14:13:58;;;;;;;;;;;18.60;88.70;;;;;;5109329;28;19942;-76
2023/10/22 14:16:24;;;;;;;;;;;18.50;88.50;;;;;;5109232;28;20375;-76
2023/10/22 14:18:49;;;;;;;;;;;18.40;88.40;;;;;;5109159;28;19919;-76